Elliot Lake, Canada
Current Conditions -  °F | °C
As of 5:00 PM on Saturday 25 Oct 2014 (Local Time) from CYZE Reporting Station
Overcast Overcast  
Wind Chill: 11°   Ceiling: 5500
Heat Index: 11°   Visibility: 9mi
Dew Point:   Wind: 24mph
Humidity: 58%   Direction: 290°WNW
Pressure: 29.6"   Gusts: 43mph
Location:  46.38°N, 82.65°W
Report Text: CYZE 252100Z AUTO 29021G37KT 9SM OVC055 11/03 A2960 RMK SLP026
Loading
Personal Weather Stations






























Interactive Weather Map
Tropical Storm Tracking
New forecast layout! Learn more

10-Day Weather Forecast

Advertisements
Track Severe Weather on mobile